createdAt,value
2019-01-04T00:02:13.633Z,31.96
2019-01-04T00:05:17.180Z,31.96
2019-01-04T00:08:21.680Z,31.95
2019-01-04T00:11:25.189Z,31.92
2019-01-04T00:14:28.709Z,31.94
2019-01-04T00:17:32.178Z,31.95
2019-01-04T00:20:35.676Z,31.90
2019-01-04T00:23:39.195Z,31.94
2019-01-04T00:26:42.685Z,31.95
2019-01-04T00:29:47.225Z,31.94
2019-01-04T00:32:50.884Z,31.95
2019-01-04T00:35:55.422Z,31.92
2019-01-04T00:38:58.956Z,31.92
2019-01-04T00:42:03.631Z,31.91
2019-01-04T00:45:07.587Z,31.93
2019-01-04T00:48:11.083Z,31.94
2019-01-04T00:51:14.566Z,31.93
2019-01-04T00:54:18.176Z,31.93
2019-01-04T00:57:57.719Z,31.90
2019-01-04T01:01:19.453Z,31.88
2019-01-04T01:05:00.550Z,31.89
2019-01-04T01:09:04.762Z,31.88
2019-01-04T01:12:42.139Z,31.91
2019-01-04T01:16:31.965Z,31.84
2019-01-04T01:20:25.037Z,31.85
2019-01-04T01:24:13.939Z,31.91
2019-01-04T01:27:51.560Z,31.88
2019-01-04T01:31:25.214Z,31.85
2019-01-04T01:34:58.574Z,31.88
2019-01-04T01:38:45.197Z,31.89
2019-01-04T01:42:31.108Z,31.85
2019-01-04T01:46:03.006Z,31.88
2019-01-04T01:49:43.054Z,31.86
2019-01-04T01:52:48.543Z,31.86
2019-01-04T01:55:55.122Z,31.85
2019-01-04T01:58:58.615Z,31.86
2019-01-04T02:02:02.127Z,31.84
2019-01-04T02:05:05.912Z,31.88
2019-01-04T02:08:09.541Z,31.87
2019-01-04T02:11:14.067Z,31.86
2019-01-04T02:14:19.612Z,31.85
2019-01-04T02:17:27.224Z,31.84
2019-01-04T02:20:30.713Z,31.83
2019-01-04T02:29:39.378Z,31.81
2019-01-04T02:32:44.914Z,31.78
2019-01-04T02:35:48.530Z,31.77
2019-01-04T02:38:54.155Z,31.84
2019-01-04T02:41:57.672Z,31.83
2019-01-04T02:45:02.203Z,31.82
2019-01-04T02:48:06.712Z,31.82
2019-01-04T02:51:10.226Z,31.81
2019-01-04T02:54:13.795Z,31.82
2019-01-04T02:57:17.498Z,31.79
2019-01-04T03:00:22.039Z,31.81
2019-01-04T03:03:25.661Z,31.80
2019-01-04T03:06:29.172Z,31.81
2019-01-04T03:09:32.682Z,31.79
2019-01-04T03:12:36.265Z,31.78
2019-01-04T03:15:39.871Z,31.79
2019-01-04T03:18:43.366Z,31.78
2019-01-04T03:21:47.896Z,31.80
2019-01-04T03:24:52.622Z,31.79
2019-01-04T03:27:56.120Z,31.80
2019-01-04T03:31:00.650Z,31.78
2019-01-04T03:34:04.186Z,31.79
2019-01-04T03:37:07.681Z,31.74
2019-01-04T03:40:11.201Z,31.75
2019-01-04T03:43:18.758Z,31.77
2019-01-04T03:46:23.286Z,31.75
2019-01-04T03:49:27.788Z,31.77
2019-01-04T03:52:32.332Z,31.78
2019-01-04T03:55:35.838Z,31.75
2019-01-04T03:58:39.321Z,31.77
2019-01-04T04:01:44.893Z,31.76
2019-01-04T04:04:48.395Z,31.76
2019-01-04T04:07:51.971Z,31.78
2019-01-04T04:10:56.614Z,31.78
2019-01-04T04:14:06.245Z,31.77
2019-01-04T04:17:09.784Z,31.74
2019-01-04T04:20:13.242Z,31.76
2019-01-04T04:23:17.764Z,31.74
2019-01-04T04:26:21.292Z,31.76
2019-01-04T04:29:24.770Z,31.74
2019-01-04T04:32:28.292Z,31.72
2019-01-04T04:35:31.833Z,31.72
2019-01-04T04:38:35.501Z,31.71
2019-01-04T04:41:41.022Z,31.74
2019-01-04T04:44:44.532Z,31.74
2019-01-04T04:47:49.076Z,31.75
2019-01-04T04:50:52.560Z,31.71
2019-01-04T04:53:56.123Z,31.70
2019-01-04T04:56:59.762Z,31.71
2019-01-04T05:00:03.258Z,31.71
2019-01-04T05:03:07.793Z,31.69
2019-01-04T05:06:11.277Z,31.70
2019-01-04T05:09:20.606Z,31.70
2019-01-04T05:12:24.250Z,31.69
2019-01-04T05:15:27.712Z,31.71
2019-01-04T05:18:31.236Z,31.68
2019-01-04T05:21:35.795Z,31.66
2019-01-04T05:24:39.262Z,31.67
2019-01-04T05:27:46.850Z,31.72
2019-01-04T05:30:51.392Z,31.69
2019-01-04T05:33:56.002Z,31.69
2019-01-04T05:36:59.613Z,31.65
2019-01-04T05:40:03.119Z,31.65
2019-01-04T05:43:06.614Z,31.63
2019-01-04T05:46:10.141Z,31.68
2019-01-04T05:49:15.658Z,31.64
2019-01-04T05:52:21.221Z,31.64
2019-01-04T05:55:32.916Z,31.67
2019-01-04T05:58:36.497Z,31.63
2019-01-04T06:01:41.151Z,31.63
2019-01-04T06:04:45.846Z,31.64
2019-01-04T06:07:50.437Z,31.63
2019-01-04T06:10:53.898Z,31.64
2019-01-04T06:13:57.389Z,31.64
2019-01-04T06:17:02.945Z,31.64
2019-01-04T06:20:06.454Z,31.64
2019-01-04T06:23:10.379Z,31.61
2019-01-04T06:26:13.859Z,31.62
2019-01-04T06:29:24.312Z,31.65
2019-01-04T06:32:27.835Z,31.65
2019-01-04T06:35:32.345Z,31.61
2019-01-04T06:38:36.892Z,31.63
2019-01-04T06:41:40.362Z,31.63
2019-01-04T06:44:43.874Z,31.63
2019-01-04T06:47:47.527Z,31.62
2019-01-04T06:50:51.061Z,31.60
2019-01-04T06:53:54.569Z,31.61
2019-01-04T06:56:58.078Z,31.62
2019-01-04T07:00:01.710Z,31.62
2019-01-04T07:03:05.292Z,31.60
2019-01-04T07:06:09.903Z,31.60
2019-01-04T07:09:16.621Z,31.59
2019-01-04T07:12:21.116Z,31.60
2019-01-04T07:15:24.611Z,31.58
2019-01-04T07:18:30.158Z,31.62
2019-01-04T07:21:35.706Z,31.61
2019-01-04T07:24:39.222Z,31.60
2019-01-04T07:27:42.709Z,31.58
2019-01-04T07:30:46.216Z,31.58
2019-01-04T07:33:53.599Z,31.59
2019-01-04T07:36:58.147Z,31.58
2019-01-04T07:40:01.658Z,31.59
2019-01-04T07:43:05.246Z,31.57
2019-01-04T07:46:09.866Z,31.57
2019-01-04T07:49:13.432Z,31.58
2019-01-04T07:52:18.108Z,31.59
2019-01-04T07:55:22.653Z,31.58
2019-01-04T07:58:26.171Z,31.54
2019-01-04T08:01:29.823Z,31.57
2019-01-04T08:04:34.461Z,31.52
2019-01-04T08:07:37.914Z,31.54
2019-01-04T08:10:41.554Z,31.54
2019-01-04T08:13:46.108Z,31.53
2019-01-04T08:16:49.579Z,31.53
2019-01-04T08:19:54.098Z,31.54
2019-01-04T08:22:59.662Z,31.58
2019-01-04T08:26:03.149Z,31.67
2019-01-04T08:29:06.662Z,31.66
2019-01-04T08:32:10.166Z,31.67
2019-01-04T08:35:13.656Z,31.77
2019-01-04T08:38:17.171Z,31.79
2019-01-04T08:41:20.649Z,31.85
2019-01-04T08:44:24.199Z,31.90
2019-01-04T08:47:27.715Z,31.94
2019-01-04T08:50:32.186Z,31.85
2019-01-04T08:53:58.105Z,31.85
2019-01-04T08:57:01.832Z,31.91
2019-01-04T09:00:10.239Z,31.93
2019-01-04T09:03:13.827Z,31.87
2019-01-04T09:06:18.364Z,31.90
2019-01-04T09:09:21.860Z,31.81
2019-01-04T09:12:25.375Z,31.86
2019-01-04T09:15:28.868Z,31.86
2019-01-04T09:18:32.410Z,31.87
2019-01-04T09:21:36.987Z,31.86
2019-01-04T09:24:40.611Z,31.83
2019-01-04T09:27:44.203Z,31.85
2019-01-04T09:30:47.800Z,31.90
2019-01-04T09:33:51.360Z,31.86
2019-01-04T09:36:55.055Z,31.80
2019-01-04T09:39:58.510Z,31.82
2019-01-04T09:43:02.008Z,31.79
2019-01-04T09:46:05.510Z,31.84
2019-01-04T09:49:09.036Z,31.79
2019-01-04T09:52:14.661Z,31.79
2019-01-04T09:55:18.266Z,31.82
2019-01-04T09:58:21.778Z,31.75
2019-01-04T10:01:25.267Z,31.69
2019-01-04T10:04:28.763Z,31.62
2019-01-04T10:07:32.287Z,31.67
2019-01-04T10:10:35.768Z,31.68
2019-01-04T10:13:39.312Z,31.67
2019-01-04T10:16:44.826Z,31.73
2019-01-04T10:19:48.328Z,31.70
2019-01-04T10:22:51.944Z,31.72
2019-01-04T10:25:55.521Z,31.71
2019-01-04T10:28:59.034Z,31.75
2019-01-04T10:32:03.539Z,31.70
2019-01-04T10:35:10.448Z,31.66
2019-01-04T10:38:12.394Z,31.60
2019-01-04T10:41:16.927Z,31.56
2019-01-04T10:44:22.483Z,31.51
2019-01-04T10:47:26.064Z,31.48
2019-01-04T10:50:30.701Z,31.45
2019-01-04T10:53:34.318Z,31.42
2019-01-04T10:56:37.896Z,31.61
2019-01-04T10:59:42.442Z,31.53
2019-01-04T11:02:47.025Z,31.62
2019-01-04T11:05:50.785Z,31.64
2019-01-04T11:08:54.387Z,31.72
2019-01-04T11:11:57.970Z,31.72
2019-01-04T11:15:01.581Z,31.70
2019-01-04T11:18:09.879Z,31.71
2019-01-04T11:21:14.047Z,31.63
2019-01-04T11:24:56.365Z,31.61
2019-01-04T11:28:12.371Z,31.62
2019-01-04T11:31:23.084Z,31.56
2019-01-04T11:35:02.992Z,31.62
2019-01-04T11:39:05.228Z,31.48
2019-01-04T11:42:53.527Z,31.57
2019-01-04T11:46:18.540Z,31.56
2019-01-04T11:49:48.813Z,31.59
2019-01-04T11:52:57.002Z,31.54
2019-01-04T11:56:00.631Z,31.46
2019-01-04T11:59:04.134Z,31.51
2019-01-04T12:02:08.636Z,31.55
2019-01-04T12:05:12.197Z,31.65
2019-01-04T12:08:15.645Z,31.75
2019-01-04T12:11:19.155Z,31.82
2019-01-04T12:14:25.218Z,31.85
2019-01-04T12:17:28.815Z,31.81
2019-01-04T12:20:32.359Z,31.89
2019-01-04T12:23:35.833Z,31.90
2019-01-04T12:26:39.424Z,31.89
2019-01-04T12:29:43.135Z,31.90
2019-01-04T12:32:47.243Z,31.89
2019-01-04T12:35:50.847Z,31.89
2019-01-04T12:38:54.389Z,31.87
2019-01-04T12:41:57.992Z,31.87
2019-01-04T12:45:01.612Z,31.84
2019-01-04T12:48:05.350Z,31.90
2019-01-04T12:51:08.959Z,31.87
2019-01-04T12:54:12.498Z,31.89
2019-01-04T12:57:17.083Z,31.88
2019-01-04T13:00:20.696Z,31.83
2019-01-04T13:03:24.181Z,31.77
2019-01-04T13:06:33.710Z,31.65
2019-01-04T13:09:37.358Z,31.62
2019-01-04T13:12:40.844Z,31.60
2019-01-04T13:15:44.360Z,31.45
2019-01-04T13:18:47.842Z,31.43
2019-01-04T13:21:51.561Z,31.44
2019-01-04T13:24:56.081Z,31.45
2019-01-04T13:27:59.592Z,31.35
2019-01-04T13:31:03.197Z,31.41
2019-01-04T13:34:06.822Z,31.40
2019-01-04T13:37:10.290Z,31.49
2019-01-04T13:40:13.795Z,31.58
2019-01-04T13:43:17.306Z,31.61
2019-01-04T13:46:21.216Z,31.57
2019-01-04T13:49:25.734Z,31.61
2019-01-04T13:52:29.315Z,31.54
2019-01-04T13:55:32.963Z,31.59
2019-01-04T13:58:36.523Z,31.54
2019-01-04T14:01:41.180Z,31.48
2019-01-04T14:04:44.698Z,31.48
2019-01-04T14:07:48.247Z,31.45
2019-01-04T14:10:51.710Z,31.39
2019-01-04T14:13:56.447Z,31.37
2019-01-04T14:17:00.135Z,31.31
2019-01-04T14:20:03.714Z,31.32
2019-01-04T14:23:07.300Z,31.14
2019-01-04T14:26:10.867Z,31.28
2019-01-04T14:29:14.606Z,31.23
2019-01-04T14:32:19.270Z,31.11
2019-01-04T14:35:22.774Z,31.13
2019-01-04T14:38:26.345Z,31.13
2019-01-04T14:41:29.969Z,31.26
2019-01-04T14:44:39.640Z,31.44
2019-01-04T14:47:44.107Z,31.47
2019-01-04T14:50:47.739Z,31.44
2019-01-04T14:53:51.419Z,31.45
2019-01-04T14:56:55.155Z,31.44
2019-01-04T14:59:58.750Z,31.49
2019-01-04T15:03:02.240Z,31.44
2019-01-04T15:06:05.789Z,31.50
2019-01-04T15:09:10.271Z,31.36
2019-01-04T15:12:13.709Z,31.36
2019-01-04T15:15:17.273Z,31.43
2019-01-04T15:18:20.757Z,31.61
2019-01-04T15:21:24.281Z,31.60
2019-01-04T15:24:27.846Z,31.57
2019-01-04T15:27:31.500Z,31.51
2019-01-04T15:30:34.982Z,31.45
2019-01-04T15:33:39.533Z,31.51
2019-01-04T15:36:43.125Z,31.50
2019-01-04T15:39:47.024Z,31.54
2019-01-04T15:42:50.642Z,31.54
2019-01-04T15:45:54.144Z,31.58
2019-01-04T15:49:03.569Z,31.56
2019-01-04T15:52:08.197Z,31.54
2019-01-04T15:55:11.799Z,31.55
2019-01-04T15:58:15.299Z,31.45
2019-01-04T16:01:18.841Z,31.52
2019-01-04T16:04:22.285Z,31.46
2019-01-04T16:07:25.792Z,31.45
2019-01-04T16:10:30.315Z,31.40
2019-01-04T16:13:33.838Z,31.34
2019-01-04T16:16:38.430Z,31.25
2019-01-04T16:19:42.068Z,31.14
2019-01-04T16:22:46.591Z,31.24
2019-01-04T16:25:50.104Z,31.22
2019-01-04T16:28:54.605Z,31.26
2019-01-04T16:31:59.131Z,31.32
2019-01-04T16:35:03.655Z,31.24
2019-01-04T16:38:07.162Z,31.19
2019-01-04T16:41:10.769Z,31.18
2019-01-04T16:44:14.361Z,31.16
2019-01-04T16:47:17.856Z,31.21
2019-01-04T16:50:21.362Z,31.16
2019-01-04T16:53:26.917Z,31.18
2019-01-04T16:56:30.525Z,31.17
2019-01-04T16:59:34.138Z,31.15
2019-01-04T17:02:37.624Z,31.19
2019-01-04T17:05:41.234Z,31.16
2019-01-04T17:08:44.812Z,30.98
2019-01-04T17:11:48.384Z,31.05
2019-01-04T17:14:53.878Z,31.02
2019-01-04T17:17:58.629Z,30.98
2019-01-04T17:21:03.136Z,31.18
2019-01-04T17:24:06.632Z,31.36
2019-01-04T17:27:10.253Z,31.48
2019-01-04T17:30:14.865Z,31.74
2019-01-04T17:33:18.483Z,31.61
2019-01-04T17:36:22.186Z,31.57
2019-01-04T17:39:25.763Z,31.69
2019-01-04T17:42:29.313Z,31.75
2019-01-04T17:45:32.798Z,31.72
2019-01-04T17:48:36.556Z,31.72
2019-01-04T17:51:40.283Z,31.65
2019-01-04T17:54:43.766Z,31.64
2019-01-04T17:57:48.287Z,31.58
2019-01-04T18:00:52.023Z,31.60
2019-01-04T18:03:56.658Z,31.56
2019-01-04T18:07:00.149Z,31.54
2019-01-04T18:10:06.471Z,31.59
2019-01-04T18:13:10.041Z,31.59
2019-01-04T18:16:13.651Z,31.60
2019-01-04T18:19:17.243Z,31.58
2019-01-04T18:22:21.756Z,31.56
2019-01-04T18:25:25.254Z,31.57
2019-01-04T18:28:28.768Z,31.55
2019-01-04T18:31:32.376Z,31.59
2019-01-04T18:34:36.045Z,31.52
2019-01-04T18:37:39.665Z,31.53
2019-01-04T18:40:43.216Z,31.51
2019-01-04T18:43:47.700Z,31.48
2019-01-04T18:46:52.230Z,31.46
2019-01-04T18:49:55.715Z,31.47
2019-01-04T18:53:00.261Z,31.48
2019-01-04T18:56:03.759Z,31.50
2019-01-04T18:59:07.262Z,31.44
2019-01-04T19:02:10.764Z,31.47
2019-01-04T19:05:14.267Z,31.47
2019-01-04T19:08:17.809Z,31.42
2019-01-04T19:11:23.086Z,31.46
2019-01-04T19:14:26.726Z,31.45
2019-01-04T19:17:30.312Z,31.45
2019-01-04T19:20:33.825Z,31.47
2019-01-04T19:23:39.682Z,31.37
2019-01-04T19:26:42.655Z,31.46
2019-01-04T19:29:48.205Z,31.44
2019-01-04T19:32:51.750Z,31.97
2019-01-04T19:35:55.220Z,31.97
2019-01-04T19:38:58.695Z,31.92
2019-01-04T19:42:02.243Z,32.01
2019-01-04T19:45:06.896Z,31.75
2019-01-04T19:48:10.464Z,31.82
2019-01-04T19:51:15.060Z,31.82
2019-01-04T19:54:18.671Z,31.75
2019-01-04T19:57:22.171Z,31.74
2019-01-04T20:00:25.645Z,31.73
2019-01-04T20:03:29.163Z,31.77
2019-01-04T20:07:18.031Z,31.71
2019-01-04T20:11:32.834Z,31.74
2019-01-04T20:15:22.561Z,31.74
2019-01-04T20:18:58.559Z,31.73
2019-01-04T20:22:19.686Z,31.74
2019-01-04T20:25:43.854Z,31.74
2019-01-04T20:29:05.188Z,31.77
2019-01-04T20:32:24.188Z,31.70
2019-01-04T20:35:45.738Z,31.73
2019-01-04T20:39:08.719Z,31.70
2019-01-04T20:42:38.945Z,31.73
2019-01-04T20:46:03.846Z,31.65
2019-01-04T20:49:26.399Z,31.66
2019-01-04T20:52:57.969Z,31.67
2019-01-04T20:56:36.990Z,31.60
2019-01-04T21:00:14.803Z,31.60
2019-01-04T21:03:36.345Z,31.58
2019-01-04T21:06:49.849Z,31.59
2019-01-04T21:10:13.453Z,31.57
2019-01-04T21:13:37.016Z,31.57
2019-01-04T21:17:04.791Z,31.52
2019-01-04T21:20:29.917Z,31.58
2019-01-04T21:24:07.542Z,31.58
2019-01-04T21:27:26.637Z,31.58
2019-01-04T21:31:02.017Z,31.54
2019-01-04T21:34:26.122Z,31.50
2019-01-04T21:37:54.672Z,31.61
2019-01-04T21:41:17.319Z,31.62
2019-01-04T21:44:46.003Z,31.59
2019-01-04T21:48:26.658Z,31.55
2019-01-04T21:51:53.496Z,31.54
2019-01-04T21:55:17.011Z,31.54
2019-01-04T21:58:40.330Z,31.54
2019-01-04T22:02:02.916Z,31.54
2019-01-04T22:05:24.337Z,31.63
2019-01-04T22:08:46.247Z,31.66
2019-01-04T22:12:07.104Z,31.55
2019-01-04T22:15:27.455Z,31.49
2019-01-04T22:18:58.877Z,31.40
2019-01-04T22:22:21.979Z,31.33
2019-01-04T22:25:44.648Z,31.36
2019-01-04T22:29:22.314Z,31.42
2019-01-04T22:32:43.618Z,31.35
2019-01-04T22:36:05.178Z,31.32
2019-01-04T22:39:30.567Z,31.33
2019-01-04T22:42:51.799Z,31.37
2019-01-04T22:46:22.349Z,31.35
2019-01-04T22:49:43.986Z,31.41
2019-01-04T22:53:05.382Z,31.39
2019-01-04T22:56:40.441Z,31.40
2019-01-04T23:00:11.985Z,31.40
2019-01-04T23:03:34.611Z,31.37
2019-01-04T23:06:56.018Z,31.39
2019-01-04T23:10:31.002Z,31.39
2019-01-04T23:13:57.674Z,31.37
2019-01-04T23:17:18.135Z,31.36
2019-01-04T23:20:39.554Z,31.41
2019-01-04T23:24:12.887Z,31.41
2019-01-04T23:27:50.478Z,31.47
2019-01-04T23:31:11.989Z,31.41
2019-01-04T23:34:49.805Z,31.46
2019-01-04T23:38:12.284Z,31.45
2019-01-04T23:41:43.598Z,31.44
2019-01-04T23:45:01.127Z,31.44
2019-01-04T23:48:35.915Z,31.37
2019-01-04T23:51:58.290Z,31.37
2019-01-04T23:55:17.408Z,31.43
2019-01-04T23:58:58.147Z,31.46
